Time;durP1;ratioP1;P1;durP2;ratioP2;P2;SDS_P1;SDS_P2;PMS_P1;PMS_P2;Temp;Humidity;BMP_temperature;BMP_pressure;BME280_temperature;BME280_humidity;BME280_pressure;Samples;Min_cycle;Max_cycle;Signal;HPM_P1;HPM_P2
2022/06/12 00:00:55;;;;;;;;;;;;;;;26.07;41.70;99100.16;2052306;28;20005;-48
2022/06/12 00:01:57;;;;;;;;;;;;;;;26.07;41.82;99102.06;2049439;28;19926;-50
2022/06/12 00:02:58;;;;;;;;;;;;;;;26.06;41.55;99101.25;2050910;28;20558;-54
2022/06/12 00:04:00;;;;;;;;;;;;;;;26.08;41.51;99099.13;2049929;28;20000;-47
2022/06/12 00:05:01;;;;;;;;;;;;;;;26.06;41.82;99098.53;2050629;28;20271;-50
2022/06/12 00:06:04;;;;;;;;;;;;;;;26.07;41.69;99107.50;2057791;28;19927;-48
2022/06/12 00:07:04;;;;;;;;;;;;;;;26.07;41.90;99100.16;2052966;28;20430;-48
2022/06/12 00:08:08;;;;;;;;;;;;;;;26.05;41.41;99099.59;2052686;28;19931;-49
2022/06/12 00:09:09;;;;;;;;;;;;;;;26.06;41.42;99098.53;2053391;28;20425;-48
2022/06/12 00:10:11;;;;;;;;;;;;;;;26.06;41.52;99098.53;2055362;28;19934;-48
2022/06/12 00:11:13;;;;;;;;;;;;;;;26.05;41.84;99098.78;2058008;28;19930;-48
2022/06/12 00:12:15;;;;;;;;;;;;;;;26.05;41.50;99094.16;2054341;28;19934;-49
2022/06/12 00:13:18;;;;;;;;;;;;;;;26.05;41.54;99096.88;2054239;28;20121;-47
2022/06/12 00:14:20;;;;;;;;;;;;;;;26.06;41.72;99094.97;2053550;28;19930;-47
2022/06/12 00:15:24;;;;;;;;;;;;;;;26.07;41.81;99097.44;2055979;28;19926;-53
2022/06/12 00:16:26;;;;;;;;;;;;;;;26.06;41.41;99093.09;2055452;28;19991;-47
2022/06/12 00:17:26;;;;;;;;;;;;;;;26.04;41.80;99099.84;2052907;28;19930;-47
2022/06/12 00:18:28;;;;;;;;;;;;;;;26.04;41.60;99097.94;2054326;28;19934;-47
2022/06/12 00:19:30;;;;;;;;;;;;;;;26.03;41.36;99101.72;2057311;28;19940;-47
2022/06/12 00:20:32;;;;;;;;;;;;;;;26.02;41.38;99089.22;2055762;28;19934;-47
2022/06/12 00:21:33;;;;;;;;;;;;;;;26.03;41.41;99090.84;2055085;28;19926;-50
2022/06/12 00:22:35;;;;;;;;;;;;;;;26.04;41.60;99095.22;2056941;28;20020;-51
2022/06/12 00:23:37;;;;;;;;;;;;;;;26.05;41.55;99098.78;2053398;28;19934;-47
2022/06/12 00:24:39;;;;;;;;;;;;;;;26.04;41.75;99095.22;2055843;28;19931;-48
2022/06/12 00:25:40;;;;;;;;;;;;;;;26.04;41.38;99100.66;2057656;28;19941;-49
2022/06/12 00:26:43;;;;;;;;;;;;;;;26.03;41.43;99099.00;2056008;28;19934;-48
2022/06/12 00:27:44;;;;;;;;;;;;;;;26.03;41.85;99100.91;2054388;28;19930;-48
2022/06/12 00:28:45;;;;;;;;;;;;;;;26.01;41.64;99098.41;2056878;28;20383;-48
2022/06/12 00:29:47;;;;;;;;;;;;;;;26.02;41.96;99099.25;2053942;28;20406;-50
2022/06/12 00:30:48;;;;;;;;;;;;;;;26.02;41.63;99097.38;2055602;28;19926;-48
2022/06/12 00:31:50;;;;;;;;;;;;;;;26.02;41.67;99100.09;2061096;28;19960;-48
2022/06/12 00:32:52;;;;;;;;;;;;;;;26.01;42.09;99103.84;2061177;28;20288;-49
2022/06/12 00:33:53;;;;;;;;;;;;;;;26.01;42.00;99106.56;2057460;28;19930;-49
2022/06/12 00:34:56;;;;;;;;;;;;;;;26.04;42.02;99097.94;2061877;28;19983;-49
2022/06/12 00:35:56;;;;;;;;;;;;;;;26.05;42.04;99110.47;2058485;28;20367;-48
2022/06/12 00:36:58;;;;;;;;;;;;;;;26.04;42.16;99106.09;2058149;28;19934;-47
2022/06/12 00:37:59;;;;;;;;;;;;;;;26.04;42.01;99105.25;2057433;28;19930;-47
2022/06/12 00:39:03;;;;;;;;;;;;;;;26.03;42.18;99109.06;2055402;28;19957;-50
2022/06/12 00:40:05;;;;;;;;;;;;;;;26.02;42.37;99102.81;2055344;28;19930;-50
2022/06/12 00:41:07;;;;;;;;;;;;;;;26.02;41.99;99105.53;2053711;28;20013;-48
2022/06/12 00:42:09;;;;;;;;;;;;;;;26.03;42.31;99109.06;2055912;28;20604;-48
2022/06/12 00:43:13;;;;;;;;;;;;;;;26.01;42.33;99112.00;2055214;28;19981;-51
2022/06/12 00:44:15;;;;;;;;;;;;;;;26.03;42.10;99109.88;2057037;28;20056;-48
2022/06/12 00:45:34;;;;;;;;;;;;;;;26.02;42.64;99108.25;2055925;28;20052;-48
2022/06/12 00:46:41;;;;;;;;;;;;;;;26.05;42.41;99115.09;2044136;28;19934;-50
2022/06/12 00:47:42;;;;;;;;;;;;;;;26.04;42.23;99106.09;2046268;28;19995;-50
2022/06/12 00:48:44;;;;;;;;;;;;;;;26.04;42.45;99108.81;2046624;28;19926;-48
2022/06/12 00:49:46;;;;;;;;;;;;;;;26.01;42.51;99103.84;2046468;28;20025;-47
2022/06/12 00:50:50;;;;;;;;;;;;;;;26.01;42.53;99101.13;2048822;28;19958;-47
2022/06/12 00:51:54;;;;;;;;;;;;;;;26.03;42.79;99109.88;2052424;28;19937;-50
2022/06/12 00:52:55;;;;;;;;;;;;;;;26.02;42.83;99102.81;2050530;28;19933;-49
2022/06/12 00:53:59;;;;;;;;;;;;;;;26.02;42.58;99110.97;2049148;28;19926;-48
2022/06/12 00:55:09;;;;;;;;;;;;;;;26.01;42.86;99109.28;2052920;28;19926;-48
2022/06/12 00:56:12;;;;;;;;;;;;;;;26.03;42.78;99111.78;2052686;28;19982;-49
2022/06/12 00:57:13;;;;;;;;;;;;;;;26.03;42.92;99112.59;2049904;28;20660;-50
2022/06/12 00:58:18;;;;;;;;;;;;;;;26.03;43.02;99101.72;2050133;28;19995;-48
2022/06/12 00:59:25;;;;;;;;;;;;;;;26.04;42.96;99113.41;2048725;28;19926;-47
2022/06/12 01:00:27;;;;;;;;;;;;;;;26.04;43.21;99111.53;2057666;28;19979;-47
2022/06/12 01:01:30;;;;;;;;;;;;;;;26.04;42.79;99113.41;2059878;28;19941;-51
2022/06/12 01:02:33;;;;;;;;;;;;;;;26.04;43.05;99116.97;2059057;28;20028;-49
2022/06/12 01:06:33;;;;;;;;;;;;;;;26.03;42.97;99114.50;2061106;28;19947;-46
2022/06/12 01:07:38;;;;;;;;;;;;;;;26.02;43.14;99110.97;2046680;28;19957;-50
2022/06/12 01:08:40;;;;;;;;;;;;;;;26.02;42.71;99110.97;2051351;28;19975;-47
2022/06/12 01:09:43;;;;;;;;;;;;;;;26.02;43.06;99110.13;2050681;28;19938;-49
2022/06/12 01:10:46;;;;;;;;;;;;;;;26.02;42.81;99110.13;2053517;28;19934;-49
2022/06/12 01:11:48;;;;;;;;;;;;;;;26.02;42.77;99110.97;2051282;28;19969;-49
2022/06/12 01:12:59;;;;;;;;;;;;;;;26.01;42.84;99109.28;2052716;28;19960;-46
2022/06/12 01:14:01;;;;;;;;;;;;;;;26.00;42.99;99110.38;2051097;28;19941;-49
2022/06/12 01:15:06;;;;;;;;;;;;;;;26.01;42.82;99109.28;2057405;28;19980;-48
2022/06/12 01:16:09;;;;;;;;;;;;;;;26.03;42.89;99111.78;2048543;28;20430;-46
2022/06/12 01:17:12;;;;;;;;;;;;;;;26.00;43.09;99107.66;2048877;28;20518;-52
2022/06/12 01:18:13;;;;;;;;;;;;;;;26.01;43.11;99108.47;2051660;28;19938;-51
2022/06/12 01:19:21;;;;;;;;;;;;;;;26.01;42.89;99111.19;2052382;28;19930;-48
2022/06/12 01:20:25;;;;;;;;;;;;;;;25.98;43.35;99106.25;2051591;28;19944;-46
2022/06/12 01:21:51;;;;;;;;;;;;;;;26.01;43.15;99105.75;2051549;28;19937;-46
2022/06/12 01:23:01;;;;;;;;;;;;;;;26.02;42.63;99110.13;2046026;28;21116;-49
2022/06/12 01:24:12;;;;;;;;;;;;;;;26.01;42.93;99112.00;2047651;28;19941;-47
2022/06/12 01:25:21;;;;;;;;;;;;;;;26.02;42.73;99104.66;2052033;28;19927;-50
2022/06/12 01:26:37;;;;;;;;;;;;;;;26.00;42.52;99107.66;2049615;28;19933;-50
2022/06/12 01:27:52;;;;;;;;;;;;;;;26.00;42.46;99110.38;2050620;28;19934;-51
2022/06/12 01:29:00;;;;;;;;;;;;;;;25.99;42.48;99116.88;2055710;28;19998;-48
2022/06/12 01:30:06;;;;;;;;;;;;;;;25.98;42.24;99109.78;2055887;28;19926;-49
2022/06/12 01:31:15;;;;;;;;;;;;;;;25.97;42.19;99112.75;2051730;28;19926;-48
2022/06/12 01:32:19;;;;;;;;;;;;;;;25.99;42.10;99108.72;2050371;28;20057;-50
2022/06/12 01:33:23;;;;;;;;;;;;;;;25.98;42.10;99112.50;2049916;28;20326;-52
2022/06/12 01:34:31;;;;;;;;;;;;;;;26.00;42.03;99109.53;2059210;28;19982;-48
2022/06/12 01:35:37;;;;;;;;;;;;;;;25.98;42.06;99115.22;2060814;28;19926;-50
2022/06/12 01:36:46;;;;;;;;;;;;;;;25.96;41.92;99109.19;2060511;28;19926;-47
2022/06/12 01:37:51;;;;;;;;;;;;;;;25.97;42.17;99113.56;2059144;28;20028;-48
2022/06/12 01:38:55;;;;;;;;;;;;;;;25.98;42.12;99109.78;2060871;28;19937;-47
2022/06/12 01:40:03;;;;;;;;;;;;;;;25.99;41.60;99111.44;2059075;28;19926;-49
2022/06/12 01:41:10;;;;;;;;;;;;;;;25.96;41.91;99106.47;2065593;28;19934;-50
2022/06/12 01:42:18;;;;;;;;;;;;;;;25.95;41.82;99102.09;2057146;28;19940;-50
2022/06/12 01:43:20;;;;;;;;;;;;;;;25.94;41.86;99108.63;2058437;28;20428;-50
2022/06/12 01:44:28;;;;;;;;;;;;;;;25.96;42.18;99109.19;2060762;28;19926;-54
2022/06/12 01:45:34;;;;;;;;;;;;;;;25.95;41.83;99107.53;2058708;28;19937;-48
2022/06/12 01:46:41;;;;;;;;;;;;;;;25.96;41.70;99102.94;2059697;28;19925;-48
2022/06/12 01:47:50;;;;;;;;;;;;;;;25.96;41.82;99105.66;2060496;28;19940;-48
2022/06/12 01:48:54;;;;;;;;;;;;;;;25.96;42.22;99097.50;2058035;28;19933;-50
2022/06/12 01:50:01;;;;;;;;;;;;;;;25.96;42.22;99111.06;2073052;28;19930;-49
2022/06/12 01:51:08;;;;;;;;;;;;;;;25.95;42.19;99099.38;2058991;28;20268;-49
2022/06/12 01:52:16;;;;;;;;;;;;;;;25.95;41.98;99099.38;2058579;28;19968;-50
2022/06/12 01:53:24;;;;;;;;;;;;;;;25.95;42.15;99095.84;2059787;28;19975;-47
2022/06/12 01:54:29;;;;;;;;;;;;;;;25.94;41.71;99102.38;2059819;28;20051;-50
2022/06/12 01:55:33;;;;;;;;;;;;;;;25.92;41.65;99099.88;2059396;28;20347;-48
2022/06/12 01:56:38;;;;;;;;;;;;;;;25.93;42.08;99097.97;2063541;28;20017;-49
2022/06/12 01:57:40;;;;;;;;;;;;;;;25.92;42.08;99096.34;2057162;28;19927;-47
2022/06/12 01:58:46;;;;;;;;;;;;;;;25.94;41.72;99097.75;2058567;28;19940;-50
2022/06/12 01:59:49;;;;;;;;;;;;;;;25.96;42.03;99094.78;2060218;28;19933;-49
2022/06/12 02:00:52;;;;;;;;;;;;;;;25.95;41.97;99099.38;2062101;28;19976;-48
2022/06/12 02:01:55;;;;;;;;;;;;;;;25.94;42.11;99100.47;2058315;28;19930;-48
2022/06/12 02:02:59;;;;;;;;;;;;;;;25.93;41.87;99093.34;2058529;28;19930;-49
2022/06/12 02:04:06;;;;;;;;;;;;;;;25.94;41.76;99095.03;2058527;28;20371;-47
2022/06/12 02:05:13;;;;;;;;;;;;;;;25.95;41.93;99096.66;2057400;28;20025;-53
2022/06/12 02:06:19;;;;;;;;;;;;;;;25.94;42.20;99096.94;2073545;28;20085;-51
2022/06/12 02:07:23;;;;;;;;;;;;;;;25.94;42.00;99092.31;2057024;28;20015;-50
2022/06/12 02:08:26;;;;;;;;;;;;;;;25.95;42.40;99091.22;2058753;28;19932;-49
2022/06/12 02:09:30;;;;;;;;;;;;;;;25.93;42.01;99093.34;2059871;28;19937;-52
2022/06/12 02:10:33;;;;;;;;;;;;;;;25.93;41.99;99090.63;2058436;28;19926;-50
2022/06/12 02:13:12;;;;;;;;;;;;;;;25.95;42.41;99098.56;2061557;28;20330;-47
2022/06/12 02:14:14;;;;;;;;;;;;;;;25.95;42.11;99093.94;2057320;28;19932;-49
2022/06/12 02:15:21;;;;;;;;;;;;;;;25.94;41.98;99089.59;2058405;28;19999;-47
2022/06/12 02:16:24;;;;;;;;;;;;;;;25.93;42.02;99087.09;2059474;28;19930;-47
2022/06/12 02:17:30;;;;;;;;;;;;;;;25.92;42.00;99094.44;2066568;28;19936;-51
2022/06/12 02:18:34;;;;;;;;;;;;;;;25.94;42.12;99091.50;2060854;28;19926;-48
2022/06/12 02:19:39;;;;;;;;;;;;;;;25.94;42.35;99088.78;2059849;28;19933;-50
2022/06/12 02:20:42;;;;;;;;;;;;;;;25.92;42.25;99088.19;2060493;28;19934;-47
2022/06/12 02:21:48;;;;;;;;;;;;;;;25.92;42.35;99090.91;2060053;28;20316;-49
2022/06/12 02:22:50;;;;;;;;;;;;;;;25.92;42.29;99089.00;2061468;28;19960;-47
2022/06/12 02:23:53;;;;;;;;;;;;;;;25.92;42.80;99093.63;2060121;28;19930;-50
2022/06/12 02:24:56;;;;;;;;;;;;;;;25.92;42.72;99089.00;2059609;28;19930;-50
2022/06/12 02:25:59;;;;;;;;;;;;;;;25.93;42.80;99092.53;2062185;28;19930;-49
2022/06/12 02:27:03;;;;;;;;;;;;;;;25.95;42.73;99095.84;2061011;28;19927;-48
2022/06/12 02:28:06;;;;;;;;;;;;;;;25.93;42.68;99096.06;2065922;28;19950;-48
2022/06/12 02:29:11;;;;;;;;;;;;;;;25.93;42.79;99093.34;2061549;28;19929;-47
2022/06/12 02:30:14;;;;;;;;;;;;;;;25.93;42.80;99090.63;2064950;28;19933;-50
2022/06/12 02:31:18;;;;;;;;;;;;;;;25.94;42.35;99097.75;2056063;28;20376;-48
2022/06/12 02:32:22;;;;;;;;;;;;;;;25.95;42.42;99096.66;2058232;28;19945;-48
2022/06/12 02:33:25;;;;;;;;;;;;;;;25.93;42.37;99095.25;2058342;28;20322;-51
2022/06/12 02:34:27;;;;;;;;;;;;;;;25.90;42.44;99093.84;2058020;28;19930;-50
2022/06/12 02:35:31;;;;;;;;;;;;;;;25.92;42.62;99088.19;2054463;28;19941;-50
2022/06/12 02:36:34;;;;;;;;;;;;;;;25.91;42.13;99087.38;2057306;28;19926;-48
2022/06/12 02:37:37;;;;;;;;;;;;;;;25.90;42.41;99093.84;2055557;28;19926;-50
2022/06/12 02:38:39;;;;;;;;;;;;;;;25.91;42.11;99091.94;2055183;28;20315;-49
2022/06/12 02:39:44;;;;;;;;;;;;;;;25.90;42.08;99093.84;2052396;28;19953;-49
2022/06/12 02:40:46;;;;;;;;;;;;;;;25.90;42.04;99095.75;2054965;28;20013;-49
2022/06/12 02:41:50;;;;;;;;;;;;;;;25.90;41.89;99098.47;2053723;28;20004;-54
2022/06/12 02:42:51;;;;;;;;;;;;;;;25.90;42.33;99098.47;2052994;28;19934;-48
2022/06/12 02:43:55;;;;;;;;;;;;;;;25.89;42.34;99100.34;2056254;28;19929;-50
2022/06/12 02:44:58;;;;;;;;;;;;;;;25.89;41.93;99094.09;2053328;28;19958;-48
2022/06/12 02:46:02;;;;;;;;;;;;;;;25.89;41.88;99097.63;2054201;28;19936;-50
2022/06/12 02:47:06;;;;;;;;;;;;;;;25.88;42.16;99095.97;2053438;28;19937;-50
2022/06/12 02:48:08;;;;;;;;;;;;;;;25.89;42.30;99097.63;2054119;28;19926;-49
2022/06/12 02:49:09;;;;;;;;;;;;;;;25.88;42.12;99098.69;2054329;28;19930;-48
2022/06/12 02:50:12;;;;;;;;;;;;;;;25.89;42.04;99094.91;2055426;28;20280;-53
2022/06/12 02:51:17;;;;;;;;;;;;;;;25.90;42.25;99095.75;2056960;28;19949;-49
2022/06/12 02:52:22;;;;;;;;;;;;;;;25.88;42.05;99095.97;2054239;28;19930;-48
2022/06/12 02:53:27;;;;;;;;;;;;;;;25.88;42.31;99095.97;2053553;28;19934;-49
2022/06/12 02:54:31;;;;;;;;;;;;;;;25.89;42.07;99102.25;2055588;28;19929;-47
2022/06/12 02:55:37;;;;;;;;;;;;;;;25.89;42.16;99102.25;2053450;28;19934;-48
2022/06/12 02:56:43;;;;;;;;;;;;;;;25.87;42.01;99099.75;2054988;28;20499;-48
2022/06/12 02:57:51;;;;;;;;;;;;;;;25.88;42.28;99097.88;2052979;28;19927;-48
2022/06/12 02:58:55;;;;;;;;;;;;;;;25.86;42.57;99103.56;2052822;28;20017;-48
2022/06/12 02:59:59;;;;;;;;;;;;;;;25.88;42.17;99106.84;2053913;28;19926;-48
2022/06/12 03:01:03;;;;;;;;;;;;;;;25.90;42.63;99109.31;2054355;28;20410;-48
2022/06/12 03:02:09;;;;;;;;;;;;;;;25.88;42.18;99104.13;2054484;28;19937;-48
2022/06/12 03:03:19;;;;;;;;;;;;;;;25.89;42.37;99105.78;2051954;28;20021;-49
2022/06/12 03:04:23;;;;;;;;;;;;;;;25.90;42.18;99106.63;2053094;28;19980;-48
2022/06/12 03:05:26;;;;;;;;;;;;;;;25.88;42.28;99100.59;2056933;28;19926;-51
2022/06/12 03:06:27;;;;;;;;;;;;;;;25.88;42.16;99104.13;2054127;28;19926;-49
2022/06/12 03:07:29;;;;;;;;;;;;;;;25.88;42.60;99104.13;2052637;28;19949;-49
2022/06/12 03:08:31;;;;;;;;;;;;;;;25.88;42.24;99104.13;2055304;28;19930;-49
2022/06/12 03:09:33;;;;;;;;;;;;;;;25.88;42.33;99108.72;2055748;28;20403;-49
2022/06/12 03:10:36;;;;;;;;;;;;;;;25.89;42.49;99107.69;2053377;28;19941;-50
2022/06/12 03:11:40;;;;;;;;;;;;;;;25.87;42.11;99107.91;2054638;28;19934;-49
2022/06/12 03:12:41;;;;;;;;;;;;;;;25.87;42.37;99105.19;2054030;28;19945;-49
2022/06/12 03:13:43;;;;;;;;;;;;;;;25.87;42.34;99102.47;2056404;28;19973;-49
2022/06/12 03:14:44;;;;;;;;;;;;;;;25.88;42.52;99106.84;2055162;28;19930;-49
2022/06/12 03:15:47;;;;;;;;;;;;;;;25.87;42.20;99110.63;2057032;28;23583;-49
2022/06/12 03:16:48;;;;;;;;;;;;;;;25.87;42.48;99109.81;2055213;28;19930;-49
2022/06/12 03:17:51;;;;;;;;;;;;;;;25.86;42.59;99109.00;2053319;28;20386;-48
2022/06/12 03:18:55;;;;;;;;;;;;;;;25.85;42.47;99110.03;2057056;28;19930;-49
2022/06/12 03:19:57;;;;;;;;;;;;;;;25.87;42.46;99110.63;2054782;28;19936;-48
2022/06/12 03:21:02;;;;;;;;;;;;;;;25.86;42.90;99111.72;2055668;28;19926;-49
2022/06/12 03:22:09;;;;;;;;;;;;;;;25.85;42.68;99108.16;2054254;28;20253;-48
2022/06/12 03:23:16;;;;;;;;;;;;;;;25.87;42.60;99112.53;2056378;28;19934;-48
2022/06/12 03:24:28;;;;;;;;;;;;;;;25.87;42.65;99110.63;2054915;28;19929;-48
2022/06/12 03:25:35;;;;;;;;;;;;;;;25.87;42.42;99107.91;2055278;28;19934;-50
2022/06/12 03:26:42;;;;;;;;;;;;;;;25.85;42.91;99110.88;2056544;28;19950;-52
2022/06/12 03:27:55;;;;;;;;;;;;;;;25.87;42.57;99109.81;2054019;28;19961;-49
2022/06/12 03:29:02;;;;;;;;;;;;;;;25.87;42.69;99115.25;2048710;28;19934;-51
2022/06/12 03:30:06;;;;;;;;;;;;;;;25.85;42.64;99110.88;2054025;28;19973;-48
2022/06/12 03:31:13;;;;;;;;;;;;;;;25.85;42.88;99115.47;2054950;28;19930;-49
2022/06/12 03:32:18;;;;;;;;;;;;;;;25.86;42.75;99111.72;2057561;28;20598;-49
2022/06/12 03:33:24;;;;;;;;;;;;;;;25.87;43.06;99117.97;2057878;28;20013;-48
2022/06/12 03:34:28;;;;;;;;;;;;;;;25.85;42.99;99112.75;2054325;28;20029;-50
2022/06/12 03:35:36;;;;;;;;;;;;;;;25.86;42.87;99114.44;2051994;28;19930;-51
2022/06/12 03:36:41;;;;;;;;;;;;;;;25.85;43.16;99121.75;2056222;28;20013;-50
2022/06/12 03:37:45;;;;;;;;;;;;;;;25.85;42.93;99112.75;2054007;28;19934;-50
2022/06/12 03:38:52;;;;;;;;;;;;;;;25.85;42.85;99118.19;2054904;28;20557;-49
2022/06/12 03:39:57;;;;;;;;;;;;;;;25.85;43.19;99120.91;2060799;28;19925;-52
2022/06/12 03:41:04;;;;;;;;;;;;;;;25.85;43.38;99120.91;2055230;28;19926;-50
2022/06/12 03:42:11;;;;;;;;;;;;;;;25.84;43.36;99130.94;2057842;28;19933;-47
2022/06/12 03:43:16;;;;;;;;;;;;;;;25.84;43.17;99121.97;2054718;28;20021;-50
2022/06/12 03:44:22;;;;;;;;;;;;;;;25.84;43.32;99130.94;2056415;28;19930;-47
2022/06/12 03:45:26;;;;;;;;;;;;;;;25.82;43.38;99124.06;2054606;28;19980;-48
2022/06/12 03:46:31;;;;;;;;;;;;;;;25.83;42.94;99136.66;2055879;28;19938;-49
2022/06/12 03:47:35;;;;;;;;;;;;;;;25.86;42.99;99133.44;2054489;28;20024;-49
2022/06/12 03:48:39;;;;;;;;;;;;;;;25.85;43.26;99131.78;2053968;28;19934;-48
2022/06/12 03:49:44;;;;;;;;;;;;;;;25.85;42.96;99138.06;2057285;28;19962;-51
2022/06/12 03:50:48;;;;;;;;;;;;;;;25.87;43.16;99128.84;2058325;28;19931;-48
2022/06/12 03:51:53;;;;;;;;;;;;;;;25.85;42.85;99138.06;2051092;28;19934;-48
2022/06/12 03:52:58;;;;;;;;;;;;;;;25.84;43.17;99138.28;2050823;28;19937;-49
2022/06/12 03:54:01;;;;;;;;;;;;;;;25.85;43.42;99143.50;2049310;28;19931;-52
2022/06/12 03:55:06;;;;;;;;;;;;;;;25.84;43.33;99138.28;2055985;28;20585;-47
2022/06/12 03:58:53;;;;;;;;;;;;;;;25.83;43.51;99140.19;2056485;28;19927;-47
2022/06/12 03:59:58;;;;;;;;;;;;;;;25.84;43.11;99141.81;2048905;28;19927;-47
2022/06/12 04:01:00;;;;;;;;;;;;;;;25.83;43.14;99151.06;2057748;28;19926;-47
2022/06/12 04:02:03;;;;;;;;;;;;;;;25.82;44.00;99149.34;2060303;28;19964;-51
2022/06/12 04:03:06;;;;;;;;;;;;;;;25.85;43.62;99153.50;2058754;28;19933;-49
2022/06/12 04:04:10;;;;;;;;;;;;;;;25.83;43.76;99150.22;2059008;28;19930;-50
2022/06/12 04:05:15;;;;;;;;;;;;;;;25.84;43.56;99158.13;2058737;28;19940;-48
2022/06/12 04:06:18;;;;;;;;;;;;;;;25.84;43.70;99152.69;2058744;28;19936;-48
2022/06/12 04:07:21;;;;;;;;;;;;;;;25.82;43.74;99151.25;2057487;28;20391;-48
2022/06/12 04:08:25;;;;;;;;;;;;;;;25.83;43.17;99151.06;2057254;28;19934;-49
2022/06/12 04:09:28;;;;;;;;;;;;;;;25.83;43.26;99150.22;2059928;28;19936;-47
2022/06/12 04:10:31;;;;;;;;;;;;;;;25.82;43.56;99145.81;2059113;28;19925;-48
2022/06/12 04:11:34;;;;;;;;;;;;;;;25.82;43.94;99153.97;2057629;28;20367;-47
2022/06/12 04:12:35;;;;;;;;;;;;;;;25.83;43.68;99150.22;2055908;28;19926;-50
2022/06/12 04:13:38;;;;;;;;;;;;;;;25.81;43.58;99147.72;2058713;28;19926;-47
2022/06/12 04:14:43;;;;;;;;;;;;;;;25.82;43.35;99148.53;2058272;28;20438;-53
2022/06/12 04:15:48;;;;;;;;;;;;;;;25.81;43.68;99145.00;2062212;28;20075;-50
2022/06/12 04:16:51;;;;;;;;;;;;;;;25.81;43.82;99150.44;2064575;28;20414;-50
2022/06/12 04:17:55;;;;;;;;;;;;;;;25.83;44.00;99147.50;2059445;28;19933;-51
2022/06/12 04:18:55;;;;;;;;;;;;;;;25.82;43.93;99152.06;2059630;28;20096;-48
2022/06/12 04:20:04;;;;;;;;;;;;;;;25.83;43.75;99150.22;2056543;28;20440;-49
2022/06/12 04:21:07;;;;;;;;;;;;;;;25.83;43.60;99150.22;2058578;28;20021;-49
2022/06/12 04:22:10;;;;;;;;;;;;;;;25.84;43.39;99149.16;2059968;28;19999;-47
2022/06/12 04:23:16;;;;;;;;;;;;;;;25.83;43.32;99150.22;2058960;28;19934;-49
2022/06/12 04:24:22;;;;;;;;;;;;;;;25.82;43.26;99149.34;2059466;28;19926;-48
2022/06/12 04:25:30;;;;;;;;;;;;;;;25.80;43.22;99146.06;2058299;28;19930;-49
2022/06/12 04:26:34;;;;;;;;;;;;;;;25.81;43.65;99152.31;2056868;28;19934;-50
2022/06/12 04:27:36;;;;;;;;;;;;;;;25.80;43.47;99156.13;2057702;28;19930;-50
2022/06/12 04:28:40;;;;;;;;;;;;;;;25.79;43.47;99152.53;2058267;28;19925;-49
2022/06/12 04:29:48;;;;;;;;;;;;;;;25.81;43.27;99155.03;2059154;28;19934;-49
2022/06/12 04:30:50;;;;;;;;;;;;;;;25.81;43.48;99145.00;2060299;28;20315;-49
2022/06/12 04:31:53;;;;;;;;;;;;;;;25.81;43.38;99147.72;2058247;28;19941;-47
2022/06/12 04:33:11;;;;;;;;;;;;;;;25.82;43.52;99148.53;2053746;28;19931;-50
2022/06/12 04:34:13;;;;;;;;;;;;;;;25.80;43.22;99146.06;2050377;28;19933;-48
2022/06/12 04:35:17;;;;;;;;;;;;;;;25.79;43.82;99138.13;2049559;28;19926;-52
2022/06/12 04:36:18;;;;;;;;;;;;;;;25.80;43.69;99148.78;2051500;28;19934;-50
2022/06/12 04:37:21;;;;;;;;;;;;;;;25.81;43.33;99141.44;2049345;28;20001;-47
2022/06/12 04:38:22;;;;;;;;;;;;;;;25.79;44.01;99138.13;2058429;28;19940;-50
2022/06/12 04:39:25;;;;;;;;;;;;;;;25.79;43.84;99147.13;2058356;28;19933;-48
2022/06/12 04:40:27;;;;;;;;;;;;;;;25.78;43.82;99141.94;2058214;28;19934;-51
2022/06/12 04:41:30;;;;;;;;;;;;;;;25.77;44.01;99145.69;2061588;28;19930;-48
2022/06/12 04:42:32;;;;;;;;;;;;;;;25.77;44.10;99148.41;2058842;28;19938;-50
2022/06/12 04:43:33;;;;;;;;;;;;;;;25.77;43.89;99145.69;2060261;28;19934;-47
2022/06/12 04:44:34;;;;;;;;;;;;;;;25.80;43.81;99146.06;2058636;28;19952;-49
2022/06/12 04:45:35;;;;;;;;;;;;;;;25.76;44.25;99136.72;2059184;28;19926;-49
2022/06/12 04:46:39;;;;;;;;;;;;;;;25.79;43.85;99135.44;2057017;28;19934;-50
2022/06/12 04:47:40;;;;;;;;;;;;;;;25.78;44.09;99139.22;2060683;28;19933;-49
2022/06/12 04:48:43;;;;;;;;;;;;;;;25.78;43.96;99136.50;2058011;28;20407;-50
2022/06/12 04:49:43;;;;;;;;;;;;;;;25.78;44.05;99131.88;2059311;28;19941;-48
2022/06/12 04:50:46;;;;;;;;;;;;;;;25.76;44.29;99128.56;2058695;28;19933;-52
2022/06/12 04:51:48;;;;;;;;;;;;;;;25.76;44.21;99130.47;2060075;28;20784;-47
2022/06/12 04:52:49;;;;;;;;;;;;;;;25.79;44.02;99127.28;2058967;28;19937;-50
2022/06/12 04:53:50;;;;;;;;;;;;;;;25.76;44.17;99131.28;2058811;28;19930;-50
2022/06/12 04:54:52;;;;;;;;;;;;;;;25.78;43.82;99131.88;2058345;28;19926;-48
2022/06/12 04:55:54;;;;;;;;;;;;;;;25.75;44.50;99124.22;2058968;28;19930;-49
2022/06/12 04:56:55;;;;;;;;;;;;;;;25.76;44.23;99125.84;2056337;28;19926;-48
2022/06/12 04:57:57;;;;;;;;;;;;;;;25.76;44.36;99130.47;2059369;28;19926;-48
2022/06/12 04:58:57;;;;;;;;;;;;;;;25.75;44.75;99128.84;2056675;28;19930;-49
2022/06/12 04:59:59;;;;;;;;;;;;;;;25.77;44.20;99129.41;2050267;28;19926;-49
2022/06/12 05:01:00;;;;;;;;;;;;;;;25.78;44.27;99131.06;2048516;28;22100;-50
2022/06/12 05:02:01;;;;;;;;;;;;;;;25.78;44.41;99125.63;2050795;28;19938;-49
2022/06/12 05:03:04;;;;;;;;;;;;;;;25.79;44.02;99132.72;2052621;28;19932;-47
2022/06/12 05:04:05;;;;;;;;;;;;;;;25.78;44.30;99131.88;2048747;28;19927;-51
2022/06/12 05:05:07;;;;;;;;;;;;;;;25.78;44.20;99136.50;2051594;28;19930;-48
2022/06/12 05:06:11;;;;;;;;;;;;;;;25.78;44.72;99131.88;2051114;28;20519;-48
2022/06/12 05:07:12;;;;;;;;;;;;;;;25.80;44.69;99128.94;2051455;28;19932;-50
2022/06/12 05:08:14;;;;;;;;;;;;;;;25.79;45.05;99133.53;2050448;28;19937;-50
2022/06/12 05:09:15;;;;;;;;;;;;;;;25.77;44.77;99137.53;2052923;28;20448;-50
2022/06/12 05:10:18;;;;;;;;;;;;;;;25.77;45.22;99140.25;2051681;28;20439;-50
2022/06/12 05:11:19;;;;;;;;;;;;;;;25.77;44.86;99138.41;2050333;28;19938;-51
2022/06/12 05:12:20;;;;;;;;;;;;;;;25.79;44.98;99138.13;2050793;28;19970;-51
2022/06/12 05:13:21;;;;;;;;;;;;;;;25.78;45.15;99136.50;2054215;28;20391;-49
2022/06/12 05:14:22;;;;;;;;;;;;;;;25.78;44.93;99133.78;2058236;28;19930;-54
2022/06/12 05:15:23;;;;;;;;;;;;;;;25.77;45.29;99129.41;2058474;28;19930;-48
2022/06/12 05:16:30;;;;;;;;;;;;;;;25.77;45.23;99140.25;2053111;28;20356;-48
2022/06/12 05:17:31;;;;;;;;;;;;;;;25.80;45.00;99137.09;2049458;28;20462;-48
2022/06/12 05:18:33;;;;;;;;;;;;;;;25.77;44.88;99138.41;2048697;28;20510;-51
2022/06/12 05:19:36;;;;;;;;;;;;;;;25.74;45.45;99136.16;2053213;28;19926;-49
2022/06/12 05:20:38;;;;;;;;;;;;;;;25.75;45.09;99150.56;2050433;28;19944;-48
2022/06/12 05:21:41;;;;;;;;;;;;;;;25.77;45.28;99140.25;2058117;28;19933;-50
2022/06/12 05:22:41;;;;;;;;;;;;;;;25.79;45.01;99149.00;2053786;28;19934;-49
2022/06/12 05:23:43;;;;;;;;;;;;;;;25.79;45.37;99144.41;2058986;28;20361;-49
2022/06/12 05:24:44;;;;;;;;;;;;;;;25.79;44.92;99149.84;2059386;28;19930;-47
2022/06/12 05:25:46;;;;;;;;;;;;;;;25.77;45.05;99145.69;2059796;28;19936;-48
2022/06/12 05:26:48;;;;;;;;;;;;;;;25.76;45.50;99144.06;2056595;28;19930;-47
2022/06/12 05:27:50;;;;;;;;;;;;;;;25.73;45.23;99148.06;2055806;28;19976;-49
2022/06/12 05:28:51;;;;;;;;;;;;;;;25.76;45.56;99149.50;2047831;28;19930;-52
2022/06/12 05:29:52;;;;;;;;;;;;;;;25.77;45.47;99151.97;2052328;28;19946;-48
2022/06/12 05:30:53;;;;;;;;;;;;;;;25.78;45.08;99150.91;2049463;28;19971;-48
2022/06/12 05:31:56;;;;;;;;;;;;;;;25.79;45.18;99159.88;2048766;28;19938;-48
2022/06/12 05:32:58;;;;;;;;;;;;;;;25.78;45.38;99155.53;2049973;28;19941;-50
2022/06/12 05:34:00;;;;;;;;;;;;;;;25.79;45.18;99159.88;2050903;28;19926;-50
2022/06/12 05:35:01;;;;;;;;;;;;;;;25.77;45.20;99162.00;2052056;28;20491;-50
2022/06/12 05:36:02;;;;;;;;;;;;;;;25.77;45.43;99162.00;2050501;28;19941;-49
2022/06/12 05:37:05;;;;;;;;;;;;;;;25.78;45.44;99161.78;2051570;28;19970;-51
2022/06/12 05:38:07;;;;;;;;;;;;;;;25.80;45.33;99164.28;2049581;28;19926;-51
2022/06/12 05:39:08;;;;;;;;;;;;;;;25.76;45.25;99163.06;2049563;28;19933;-49
2022/06/12 05:40:13;;;;;;;;;;;;;;;25.77;45.21;99160.13;2051854;28;20351;-47